createdAt,value
2023-03-22T00:01:30.928Z,117.27
2023-03-22T00:03:58.750Z,117.03
2023-03-22T00:06:26.976Z,117.60
2023-03-22T00:08:55.319Z,118.43
2023-03-22T00:11:26.663Z,115.87
2023-03-22T00:13:54.661Z,117.80
2023-03-22T00:16:22.357Z,117.80
2023-03-22T00:18:49.460Z,116.87
2023-03-22T00:21:17.717Z,117.00
2023-03-22T00:23:46.145Z,116.67
2023-03-22T00:26:14.950Z,117.47
2023-03-22T00:28:43.426Z,116.97
2023-03-22T00:31:11.487Z,117.87
2023-03-22T00:33:39.022Z,117.77
2023-03-22T00:36:12.074Z,116.67
2023-03-22T00:38:44.257Z,117.87
2023-03-22T00:41:21.157Z,117.07
2023-03-22T00:43:50.196Z,118.17
2023-03-22T00:46:21.085Z,116.80
2023-03-22T00:48:49.031Z,117.10
2023-03-22T00:51:17.925Z,117.50
2023-03-22T00:53:45.192Z,116.50
2023-03-22T00:56:14.047Z,117.17
2023-03-22T00:58:51.597Z,117.63
2023-03-22T01:01:18.771Z,117.67
2023-03-22T01:03:49.675Z,117.60
2023-03-22T01:06:18.065Z,117.80
2023-03-22T01:08:46.444Z,118.27
2023-03-22T01:11:17.217Z,116.97
2023-03-22T01:13:44.230Z,116.07
2023-03-22T01:16:11.695Z,117.50
2023-03-22T01:18:39.942Z,117.60
2023-03-22T01:21:08.757Z,117.50
2023-03-22T01:23:37.949Z,117.00
2023-03-22T01:26:05.963Z,118.17
2023-03-22T01:28:33.144Z,117.90
2023-03-22T01:31:04.040Z,117.77
2023-03-22T01:33:31.541Z,115.50
2023-03-22T01:35:59.391Z,117.80
2023-03-22T01:38:27.281Z,118.07
2023-03-22T01:40:58.614Z,117.70
2023-03-22T01:43:27.381Z,117.23
2023-03-22T01:45:55.351Z,117.83
2023-03-22T01:48:34.906Z,118.07
2023-03-22T01:51:19.067Z,117.10
2023-03-22T01:54:35.925Z,118.17
2023-03-22T01:57:18.774Z,117.80
2023-03-22T01:59:47.918Z,118.00
2023-03-22T02:02:30.786Z,118.03
2023-03-22T02:05:13.069Z,118.47
2023-03-22T02:07:43.369Z,118.07
2023-03-22T02:10:23.330Z,117.90
2023-03-22T02:13:50.366Z,117.97
2023-03-22T02:16:59.480Z,116.57
2023-03-22T02:20:10.893Z,118.07
2023-03-22T02:23:07.683Z,117.87
2023-03-22T02:26:34.586Z,117.83
2023-03-22T02:29:29.897Z,117.90
2023-03-22T02:32:47.267Z,118.07
2023-03-22T02:35:34.054Z,117.27
2023-03-22T02:39:11.245Z,118.77
2023-03-22T02:42:42.918Z,117.57
2023-03-22T02:45:21.434Z,118.33
2023-03-22T02:49:14.483Z,118.30
2023-03-22T02:52:17.196Z,118.77
2023-03-22T02:55:37.812Z,118.37
2023-03-22T02:58:36.879Z,118.03
2023-03-22T03:01:13.435Z,118.00
2023-03-22T03:03:41.817Z,118.47
2023-03-22T03:06:15.048Z,118.00
2023-03-22T03:08:46.666Z,118.17
2023-03-22T03:11:14.223Z,117.30
2023-03-22T03:13:41.901Z,117.47
2023-03-22T03:16:17.264Z,117.47
2023-03-22T03:19:08.873Z,117.90
2023-03-22T03:22:15.629Z,117.97
2023-03-22T03:25:02.022Z,118.67
2023-03-22T03:27:57.544Z,116.90
2023-03-22T03:30:43.750Z,117.90
2023-03-22T03:33:17.860Z,118.10
2023-03-22T03:35:55.841Z,118.00
2023-03-22T03:38:30.758Z,118.30
2023-03-22T03:41:10.871Z,118.00
2023-03-22T03:43:40.117Z,118.57
2023-03-22T03:46:08.703Z,118.67
2023-03-22T03:48:40.936Z,118.10
2023-03-22T03:51:11.055Z,118.00
2023-03-22T03:53:38.607Z,117.70
2023-03-22T03:56:06.801Z,117.50
2023-03-22T03:58:38.837Z,117.03
2023-03-22T04:01:07.040Z,118.27
2023-03-22T04:03:55.283Z,117.70
2023-03-22T04:06:48.880Z,118.10
2023-03-22T04:09:21.146Z,117.50
2023-03-22T04:11:55.830Z,117.53
2023-03-22T04:14:24.951Z,117.63
2023-03-22T04:16:55.462Z,117.83
2023-03-22T04:19:24.855Z,117.70
2023-03-22T04:21:53.059Z,118.00
2023-03-22T04:24:22.156Z,117.77
2023-03-22T04:26:52.558Z,117.17
2023-03-22T04:29:32.140Z,117.53
2023-03-22T04:32:11.434Z,117.20
2023-03-22T04:34:42.395Z,115.83
2023-03-22T04:37:13.579Z,115.70
2023-03-22T04:39:47.601Z,116.17
2023-03-22T04:42:36.244Z,117.07
2023-03-22T04:45:16.952Z,117.23
2023-03-22T04:47:48.907Z,117.40
2023-03-22T04:50:16.213Z,117.70
2023-03-22T04:52:50.684Z,117.30
2023-03-22T04:55:18.508Z,117.70
2023-03-22T04:57:46.222Z,117.30
2023-03-22T05:00:15.251Z,114.67
2023-03-22T05:02:43.950Z,117.57
2023-03-22T05:05:18.952Z,116.27
2023-03-22T05:07:48.400Z,117.40
2023-03-22T05:10:15.858Z,117.50
2023-03-22T05:12:43.320Z,117.60
2023-03-22T05:15:16.640Z,116.77
2023-03-22T05:17:44.687Z,117.80
2023-03-22T05:20:12.298Z,117.87
2023-03-22T05:22:41.616Z,115.73
2023-03-22T05:25:11.511Z,116.47
2023-03-22T05:27:42.225Z,117.27
2023-03-22T05:30:24.062Z,117.50
2023-03-22T05:33:04.300Z,116.67
2023-03-22T05:35:40.977Z,117.73
2023-03-22T05:38:10.613Z,117.30
2023-03-22T05:40:42.807Z,117.07
2023-03-22T05:43:09.920Z,117.50
2023-03-22T05:45:41.369Z,117.30
2023-03-22T05:48:21.699Z,117.60
2023-03-22T05:50:49.182Z,117.47
2023-03-22T05:53:16.341Z,117.20
2023-03-22T05:55:49.355Z,116.93
2023-03-22T05:58:18.975Z,115.80
2023-03-22T06:00:49.890Z,117.27
2023-03-22T06:03:19.457Z,117.20
2023-03-22T06:05:54.860Z,117.47
2023-03-22T06:08:32.003Z,117.20
2023-03-22T06:10:59.845Z,114.67
2023-03-22T06:13:27.146Z,114.17
2023-03-22T06:15:54.277Z,116.73
2023-03-22T06:18:24.577Z,116.90
2023-03-22T06:21:00.377Z,116.90
2023-03-22T06:23:28.322Z,117.17
2023-03-22T06:25:55.773Z,116.53
2023-03-22T06:28:23.754Z,116.83
2023-03-22T06:30:54.407Z,116.60
2023-03-22T06:33:28.171Z,117.87
2023-03-22T06:36:01.949Z,117.07
2023-03-22T06:38:49.350Z,117.43
2023-03-22T06:41:16.362Z,116.80
2023-03-22T06:43:43.357Z,116.50
2023-03-22T06:46:23.733Z,117.00
2023-03-22T06:49:00.984Z,117.17
2023-03-22T06:51:28.035Z,116.57
2023-03-22T06:53:55.697Z,116.93
2023-03-22T06:56:23.309Z,116.40
2023-03-22T06:58:54.642Z,116.87
2023-03-22T07:01:21.977Z,116.53
2023-03-22T07:03:49.708Z,116.97
2023-03-22T07:06:19.059Z,116.57
2023-03-22T07:08:51.582Z,117.00
2023-03-22T07:11:26.438Z,116.77
2023-03-22T07:13:59.383Z,117.17
2023-03-22T07:16:33.314Z,116.80
2023-03-22T07:19:03.366Z,117.00
2023-03-22T07:21:30.758Z,116.90
2023-03-22T07:24:01.734Z,116.90
2023-03-22T07:26:30.788Z,117.43
2023-03-22T07:28:59.726Z,116.97
2023-03-22T07:31:31.432Z,116.97
2023-03-22T07:34:04.618Z,117.37
2023-03-22T07:36:38.229Z,117.50
2023-03-22T07:39:08.288Z,116.10
2023-03-22T07:41:40.213Z,115.27
2023-03-22T07:44:26.402Z,117.10
2023-03-22T07:47:14.345Z,117.17
2023-03-22T07:49:55.631Z,115.10
2023-03-22T07:52:28.247Z,116.07
2023-03-22T07:54:55.945Z,116.70
2023-03-22T07:57:23.662Z,117.23
2023-03-22T07:59:56.978Z,117.17
2023-03-22T08:02:27.553Z,115.67
2023-03-22T08:04:56.864Z,116.07
2023-03-22T08:07:38.496Z,116.50
2023-03-22T08:10:06.292Z,117.07
2023-03-22T08:12:35.529Z,115.97
2023-03-22T08:15:16.022Z,116.80
2023-03-22T08:17:44.021Z,116.60
2023-03-22T08:20:18.619Z,116.10
2023-03-22T08:22:51.388Z,116.30
2023-03-22T08:25:22.113Z,116.40
2023-03-22T08:27:49.465Z,116.57
2023-03-22T08:30:17.264Z,115.97
2023-03-22T08:32:44.274Z,116.30
2023-03-22T08:35:11.898Z,116.97
2023-03-22T08:37:39.973Z,116.77
2023-03-22T08:40:09.756Z,116.63
2023-03-22T08:42:41.693Z,115.80
2023-03-22T08:45:10.416Z,116.07
2023-03-22T08:47:44.879Z,114.90
2023-03-22T08:50:13.432Z,115.57
2023-03-22T08:52:48.154Z,115.60
2023-03-22T08:55:31.481Z,115.40
2023-03-22T08:58:21.537Z,115.37
2023-03-22T09:03:41.328Z,115.47
2023-03-22T09:06:12.785Z,115.13
2023-03-22T09:08:42.143Z,115.77
2023-03-22T09:11:13.259Z,115.30
2023-03-22T09:13:42.069Z,115.00
2023-03-22T09:16:09.483Z,115.30
2023-03-22T09:18:39.255Z,115.40
2023-03-22T09:21:12.846Z,115.07
2023-03-22T09:23:48.820Z,115.03
2023-03-22T09:26:19.008Z,115.20
2023-03-22T09:28:50.193Z,115.17
2023-03-22T09:31:20.174Z,115.57
2023-03-22T09:33:49.552Z,114.70
2023-03-22T09:36:16.619Z,115.27
2023-03-22T09:38:43.825Z,115.67
2023-03-22T09:42:01.674Z,115.53
2023-03-22T09:44:45.503Z,114.93
2023-03-22T09:47:45.291Z,115.77
2023-03-22T09:50:30.436Z,115.70
2023-03-22T09:53:00.358Z,115.20
2023-03-22T09:55:41.699Z,115.20
2023-03-22T09:58:33.119Z,115.27
2023-03-22T10:01:06.719Z,114.97
2023-03-22T10:04:03.552Z,114.97
2023-03-22T10:06:32.246Z,114.77
2023-03-22T10:09:10.896Z,114.50
2023-03-22T10:11:54.245Z,114.27
2023-03-22T10:14:48.770Z,114.67
2023-03-22T10:17:23.990Z,113.90
2023-03-22T10:19:59.234Z,115.17
2023-03-22T10:22:42.082Z,114.87
2023-03-22T10:25:17.707Z,114.77
2023-03-22T10:27:49.086Z,114.60
2023-03-22T10:30:27.708Z,114.60
2023-03-22T10:33:04.468Z,114.50
2023-03-22T10:35:32.927Z,114.50
2023-03-22T10:38:07.235Z,114.60
2023-03-22T10:40:36.879Z,114.67
2023-03-22T10:43:34.765Z,114.80
2023-03-22T10:46:07.546Z,114.40
2023-03-22T10:48:42.185Z,114.50
2023-03-22T10:51:52.022Z,114.87
2023-03-22T10:54:22.389Z,115.57
2023-03-22T10:56:49.665Z,115.17
2023-03-22T10:59:49.493Z,115.13
2023-03-22T11:02:32.483Z,114.87
2023-03-22T11:05:05.769Z,114.57
2023-03-22T11:07:43.398Z,114.47
2023-03-22T11:10:10.678Z,114.27
2023-03-22T11:13:09.625Z,114.57
2023-03-22T11:15:48.869Z,114.57
2023-03-22T11:18:17.959Z,114.10
2023-03-22T11:21:07.618Z,114.57
2023-03-22T11:23:38.386Z,114.77
2023-03-22T11:26:11.326Z,115.13
2023-03-22T11:28:50.131Z,114.77
2023-03-22T11:31:20.425Z,114.80
2023-03-22T11:34:01.818Z,114.37
2023-03-22T11:36:31.015Z,114.27
2023-03-22T11:39:07.743Z,113.97
2023-03-22T11:41:40.758Z,112.80
2023-03-22T11:44:18.023Z,113.43
2023-03-22T11:47:02.599Z,113.87
2023-03-22T11:49:51.423Z,113.90
2023-03-22T11:52:25.606Z,114.03
2023-03-22T11:54:56.028Z,113.57
2023-03-22T11:57:34.063Z,114.40
2023-03-22T12:00:19.848Z,113.77
2023-03-22T12:03:16.481Z,114.27
2023-03-22T12:05:48.858Z,113.77
2023-03-22T12:08:23.694Z,113.97
2023-03-22T12:11:05.300Z,113.20
2023-03-22T12:13:52.084Z,114.30
2023-03-22T12:16:28.980Z,112.87
2023-03-22T12:19:23.836Z,113.67
2023-03-22T12:21:52.758Z,111.67
2023-03-22T12:24:32.312Z,113.37
2023-03-22T12:27:17.476Z,112.97
2023-03-22T12:30:01.590Z,113.17
2023-03-22T12:32:50.159Z,114.03
2023-03-22T12:35:29.436Z,113.40
2023-03-22T12:38:07.130Z,114.17
2023-03-22T12:40:44.630Z,114.67
2023-03-22T12:43:48.580Z,114.97
2023-03-22T12:46:25.093Z,114.50
2023-03-22T12:49:29.750Z,114.60
2023-03-22T12:52:15.980Z,114.80
2023-03-22T12:54:44.561Z,115.40
2023-03-22T12:57:14.385Z,115.07
2023-03-22T12:59:49.489Z,115.00
2023-03-22T13:02:31.073Z,115.30
2023-03-22T13:05:04.757Z,115.33
2023-03-22T13:07:57.032Z,115.10
2023-03-22T13:10:34.219Z,114.97
2023-03-22T13:13:23.530Z,114.90
2023-03-22T13:16:08.455Z,115.47
2023-03-22T13:18:38.432Z,115.47
2023-03-22T13:21:26.529Z,114.93
2023-03-22T13:24:20.395Z,114.87
2023-03-22T13:26:54.583Z,114.77
2023-03-22T13:29:38.048Z,114.57
2023-03-22T13:32:30.923Z,114.77
2023-03-22T13:34:59.100Z,114.77
2023-03-22T13:37:49.060Z,115.07
2023-03-22T13:40:38.617Z,115.57
2023-03-22T13:43:47.867Z,115.40
2023-03-22T13:46:37.429Z,114.93
2023-03-22T13:49:23.339Z,115.07
2023-03-22T13:51:52.240Z,114.80
2023-03-22T13:54:26.248Z,114.20
2023-03-22T13:57:01.561Z,115.47
2023-03-22T14:00:09.583Z,115.37
2023-03-22T14:02:43.177Z,115.50
2023-03-22T14:05:19.823Z,115.47
2023-03-22T14:07:59.222Z,115.67
2023-03-22T14:10:56.954Z,115.47
2023-03-22T14:13:46.356Z,114.97
2023-03-22T14:16:35.234Z,114.70
2023-03-22T14:19:06.281Z,114.50
